sensor_id;sensor_type;location;lat;lon;timestamp;temperature;humidity
3644;DHT22;1838;50.742;7.158;2023-04-03T00:00:31;4.60;99.90
3644;DHT22;1838;50.742;7.158;2023-04-03T00:02:57;4.60;99.90
3644;DHT22;1838;50.742;7.158;2023-04-03T00:05:22;4.70;99.90
3644;DHT22;1838;50.742;7.158;2023-04-03T00:07:48;4.70;99.90
3644;DHT22;1838;50.742;7.158;2023-04-03T00:10:15;4.80;99.90
3644;DHT22;1838;50.742;7.158;2023-04-03T00:12:41;4.70;99.90
3644;DHT22;1838;50.742;7.158;2023-04-03T00:15:06;4.80;99.90
3644;DHT22;1838;50.742;7.158;2023-04-03T00:17:32;4.80;99.90
3644;DHT22;1838;50.742;7.158;2023-04-03T00:19:58;4.80;99.90
3644;DHT22;1838;50.742;7.158;2023-04-03T00:22:23;4.80;99.90
3644;DHT22;1838;50.742;7.158;2023-04-03T00:24:49;4.80;99.90
3644;DHT22;1838;50.742;7.158;2023-04-03T00:27:14;4.80;99.90
3644;DHT22;1838;50.742;7.158;2023-04-03T00:29:41;4.80;99.90
3644;DHT22;1838;50.742;7.158;2023-04-03T00:32:06;4.80;99.90
3644;DHT22;1838;50.742;7.158;2023-04-03T00:34:32;4.90;99.90
3644;DHT22;1838;50.742;7.158;2023-04-03T00:36:57;4.90;99.90
3644;DHT22;1838;50.742;7.158;2023-04-03T00:39:23;4.90;99.90
3644;DHT22;1838;50.742;7.158;2023-04-03T00:41:48;4.90;99.90
3644;DHT22;1838;50.742;7.158;2023-04-03T00:46:58;5.00;99.90
3644;DHT22;1838;50.742;7.158;2023-04-03T00:49:23;5.00;99.90
3644;DHT22;1838;50.742;7.158;2023-04-03T00:51:49;5.00;99.90
3644;DHT22;1838;50.742;7.158;2023-04-03T00:54:16;5.00;99.90
3644;DHT22;1838;50.742;7.158;2023-04-03T00:56:42;5.10;99.90
3644;DHT22;1838;50.742;7.158;2023-04-03T00:59:13;5.10;99.90
3644;DHT22;1838;50.742;7.158;2023-04-03T01:01:40;5.00;99.90
3644;DHT22;1838;50.742;7.158;2023-04-03T01:04:23;5.00;99.90
3644;DHT22;1838;50.742;7.158;2023-04-03T01:06:52;4.90;99.90
3644;DHT22;1838;50.742;7.158;2023-04-03T01:09:17;5.00;99.90
3644;DHT22;1838;50.742;7.158;2023-04-03T01:11:43;4.90;99.90
3644;DHT22;1838;50.742;7.158;2023-04-03T01:14:08;5.00;99.90
3644;DHT22;1838;50.742;7.158;2023-04-03T01:16:34;5.00;99.90
3644;DHT22;1838;50.742;7.158;2023-04-03T01:19:00;5.00;99.90
3644;DHT22;1838;50.742;7.158;2023-04-03T01:21:53;5.00;99.90
3644;DHT22;1838;50.742;7.158;2023-04-03T01:24:36;5.00;99.90
3644;DHT22;1838;50.742;7.158;2023-04-03T01:27:05;5.10;99.90
3644;DHT22;1838;50.742;7.158;2023-04-03T01:29:32;5.10;99.90
3644;DHT22;1838;50.742;7.158;2023-04-03T01:31:59;5.00;99.90
3644;DHT22;1838;50.742;7.158;2023-04-03T01:34:25;5.00;99.90
3644;DHT22;1838;50.742;7.158;2023-04-03T01:36:51;5.00;99.90
3644;DHT22;1838;50.742;7.158;2023-04-03T01:39:18;5.00;99.90
3644;DHT22;1838;50.742;7.158;2023-04-03T01:41:43;5.00;99.90
3644;DHT22;1838;50.742;7.158;2023-04-03T01:44:09;5.00;99.90
3644;DHT22;1838;50.742;7.158;2023-04-03T01:46:35;4.90;99.90
3644;DHT22;1838;50.742;7.158;2023-04-03T01:49:01;4.90;99.90
3644;DHT22;1838;50.742;7.158;2023-04-03T01:51:26;4.90;99.90
3644;DHT22;1838;50.742;7.158;2023-04-03T01:53:52;4.80;99.90
3644;DHT22;1838;50.742;7.158;2023-04-03T01:56:17;4.80;99.90
3644;DHT22;1838;50.742;7.158;2023-04-03T01:58:43;4.80;99.90
3644;DHT22;1838;50.742;7.158;2023-04-03T02:01:08;4.60;99.90
3644;DHT22;1838;50.742;7.158;2023-04-03T02:03:34;4.50;99.90
3644;DHT22;1838;50.742;7.158;2023-04-03T02:05:59;4.30;99.90
3644;DHT22;1838;50.742;7.158;2023-04-03T02:08:25;4.20;99.90
3644;DHT22;1838;50.742;7.158;2023-04-03T02:10:51;4.10;99.90
3644;DHT22;1838;50.742;7.158;2023-04-03T02:13:17;4.20;99.90
3644;DHT22;1838;50.742;7.158;2023-04-03T02:15:43;4.20;99.90
3644;DHT22;1838;50.742;7.158;2023-04-03T02:18:09;4.20;99.90
3644;DHT22;1838;50.742;7.158;2023-04-03T02:20:34;4.10;99.90
3644;DHT22;1838;50.742;7.158;2023-04-03T02:23:00;4.10;99.90
3644;DHT22;1838;50.742;7.158;2023-04-03T02:25:26;4.00;99.90
3644;DHT22;1838;50.742;7.158;2023-04-03T02:27:51;4.10;99.90
3644;DHT22;1838;50.742;7.158;2023-04-03T02:30:17;4.10;99.90
3644;DHT22;1838;50.742;7.158;2023-04-03T02:32:43;4.10;99.90
3644;DHT22;1838;50.742;7.158;2023-04-03T02:35:09;4.00;99.90
3644;DHT22;1838;50.742;7.158;2023-04-03T02:37:35;4.00;99.90
3644;DHT22;1838;50.742;7.158;2023-04-03T02:40:01;3.90;99.90
3644;DHT22;1838;50.742;7.158;2023-04-03T02:42:26;4.00;99.90
3644;DHT22;1838;50.742;7.158;2023-04-03T02:44:52;4.00;99.90
3644;DHT22;1838;50.742;7.158;2023-04-03T02:47:17;3.90;99.90
3644;DHT22;1838;50.742;7.158;2023-04-03T02:49:43;3.90;99.90
3644;DHT22;1838;50.742;7.158;2023-04-03T02:52:12;3.90;99.90
3644;DHT22;1838;50.742;7.158;2023-04-03T02:54:38;3.90;99.90
3644;DHT22;1838;50.742;7.158;2023-04-03T02:57:03;3.80;99.90
3644;DHT22;1838;50.742;7.158;2023-04-03T02:59:29;3.70;99.90
3644;DHT22;1838;50.742;7.158;2023-04-03T03:01:54;3.80;99.90
3644;DHT22;1838;50.742;7.158;2023-04-03T03:04:21;3.80;99.90
3644;DHT22;1838;50.742;7.158;2023-04-03T03:06:46;3.80;99.90
3644;DHT22;1838;50.742;7.158;2023-04-03T03:09:12;3.80;99.90
3644;DHT22;1838;50.742;7.158;2023-04-03T03:11:38;3.90;99.90
3644;DHT22;1838;50.742;7.158;2023-04-03T03:14:04;3.80;99.90
3644;DHT22;1838;50.742;7.158;2023-04-03T03:16:30;3.80;99.90
3644;DHT22;1838;50.742;7.158;2023-04-03T03:18:55;3.80;99.90
3644;DHT22;1838;50.742;7.158;2023-04-03T03:21:21;3.80;99.90
3644;DHT22;1838;50.742;7.158;2023-04-03T03:23:46;3.80;99.90
3644;DHT22;1838;50.742;7.158;2023-04-03T03:26:12;3.80;99.90
3644;DHT22;1838;50.742;7.158;2023-04-03T03:28:39;3.80;99.90
3644;DHT22;1838;50.742;7.158;2023-04-03T03:31:05;3.70;99.90
3644;DHT22;1838;50.742;7.158;2023-04-03T03:33:31;3.70;99.90
3644;DHT22;1838;50.742;7.158;2023-04-03T03:35:57;3.60;99.90
3644;DHT22;1838;50.742;7.158;2023-04-03T03:38:22;3.60;99.90
3644;DHT22;1838;50.742;7.158;2023-04-03T03:40:49;3.50;99.90
3644;DHT22;1838;50.742;7.158;2023-04-03T03:43:15;3.50;99.90
3644;DHT22;1838;50.742;7.158;2023-04-03T03:45:41;3.50;99.90
3644;DHT22;1838;50.742;7.158;2023-04-03T03:48:06;3.40;99.90
3644;DHT22;1838;50.742;7.158;2023-04-03T03:50:32;3.30;99.90
3644;DHT22;1838;50.742;7.158;2023-04-03T03:52:57;3.20;99.90
3644;DHT22;1838;50.742;7.158;2023-04-03T03:55:23;3.00;99.90
3644;DHT22;1838;50.742;7.158;2023-04-03T03:57:48;2.90;99.90
3644;DHT22;1838;50.742;7.158;2023-04-03T04:00:14;2.90;99.90
3644;DHT22;1838;50.742;7.158;2023-04-03T04:02:40;2.80;99.90
3644;DHT22;1838;50.742;7.158;2023-04-03T04:05:06;2.80;99.90
3644;DHT22;1838;50.742;7.158;2023-04-03T04:07:32;2.80;99.90
3644;DHT22;1838;50.742;7.158;2023-04-03T04:09:57;2.70;99.90
3644;DHT22;1838;50.742;7.158;2023-04-03T04:12:23;2.70;99.90
3644;DHT22;1838;50.742;7.158;2023-04-03T04:14:48;2.70;99.90
3644;DHT22;1838;50.742;7.158;2023-04-03T04:17:14;2.60;99.90
3644;DHT22;1838;50.742;7.158;2023-04-03T04:19:40;2.60;99.90
3644;DHT22;1838;50.742;7.158;2023-04-03T04:22:06;2.60;99.90
3644;DHT22;1838;50.742;7.158;2023-04-03T04:24:31;2.50;99.90
3644;DHT22;1838;50.742;7.158;2023-04-03T04:26:57;2.50;99.90
3644;DHT22;1838;50.742;7.158;2023-04-03T04:29:23;2.50;99.90
3644;DHT22;1838;50.742;7.158;2023-04-03T04:31:48;2.50;99.90
3644;DHT22;1838;50.742;7.158;2023-04-03T04:34:14;2.40;99.90
3644;DHT22;1838;50.742;7.158;2023-04-03T04:36:40;2.40;99.90
3644;DHT22;1838;50.742;7.158;2023-04-03T04:39:05;2.40;99.90
3644;DHT22;1838;50.742;7.158;2023-04-03T04:41:31;2.40;99.90
3644;DHT22;1838;50.742;7.158;2023-04-03T04:43:57;2.40;99.90
3644;DHT22;1838;50.742;7.158;2023-04-03T04:46:23;2.40;99.90
3644;DHT22;1838;50.742;7.158;2023-04-03T04:48:49;2.30;99.90
3644;DHT22;1838;50.742;7.158;2023-04-03T04:51:15;2.30;99.90
3644;DHT22;1838;50.742;7.158;2023-04-03T04:53:40;2.30;99.90
3644;DHT22;1838;50.742;7.158;2023-04-03T04:56:06;2.30;99.90
3644;DHT22;1838;50.742;7.158;2023-04-03T04:58:32;2.30;99.90
3644;DHT22;1838;50.742;7.158;2023-04-03T05:01:02;2.20;99.90
3644;DHT22;1838;50.742;7.158;2023-04-03T05:03:28;2.20;99.90
3644;DHT22;1838;50.742;7.158;2023-04-03T05:05:54;2.20;99.90
3644;DHT22;1838;50.742;7.158;2023-04-03T05:08:19;2.20;99.90
3644;DHT22;1838;50.742;7.158;2023-04-03T05:10:46;2.10;99.90
3644;DHT22;1838;50.742;7.158;2023-04-03T05:13:11;2.10;99.90
3644;DHT22;1838;50.742;7.158;2023-04-03T05:15:37;2.10;99.90
3644;DHT22;1838;50.742;7.158;2023-04-03T05:18:03;2.00;99.90
3644;DHT22;1838;50.742;7.158;2023-04-03T05:20:28;2.00;99.90
3644;DHT22;1838;50.742;7.158;2023-04-03T05:22:54;2.00;99.90
3644;DHT22;1838;50.742;7.158;2023-04-03T05:25:19;2.00;99.90
3644;DHT22;1838;50.742;7.158;2023-04-03T05:27:45;2.00;99.90
3644;DHT22;1838;50.742;7.158;2023-04-03T05:30:11;2.00;99.90
3644;DHT22;1838;50.742;7.158;2023-04-03T05:32:36;2.10;99.90
3644;DHT22;1838;50.742;7.158;2023-04-03T05:35:02;2.10;99.90
3644;DHT22;1838;50.742;7.158;2023-04-03T05:37:28;2.20;99.90
3644;DHT22;1838;50.742;7.158;2023-04-03T05:39:53;2.20;99.90
3644;DHT22;1838;50.742;7.158;2023-04-03T05:42:19;2.20;99.90
3644;DHT22;1838;50.742;7.158;2023-04-03T05:44:45;2.20;99.90
3644;DHT22;1838;50.742;7.158;2023-04-03T05:47:12;2.30;99.90
3644;DHT22;1838;50.742;7.158;2023-04-03T05:49:38;2.30;99.90
3644;DHT22;1838;50.742;7.158;2023-04-03T05:52:29;2.30;99.90
3644;DHT22;1838;50.742;7.158;2023-04-03T05:54:56;2.40;99.90
3644;DHT22;1838;50.742;7.158;2023-04-03T05:57:22;2.40;99.90
3644;DHT22;1838;50.742;7.158;2023-04-03T05:59:50;2.50;99.90
3644;DHT22;1838;50.742;7.158;2023-04-03T06:02:18;2.50;99.90
3644;DHT22;1838;50.742;7.158;2023-04-03T06:04:47;2.60;99.90
3644;DHT22;1838;50.742;7.158;2023-04-03T06:07:25;2.60;99.90
3644;DHT22;1838;50.742;7.158;2023-04-03T06:09:54;2.70;99.90
3644;DHT22;1838;50.742;7.158;2023-04-03T06:12:21;2.80;99.90
3644;DHT22;1838;50.742;7.158;2023-04-03T06:14:47;2.90;99.90
3644;DHT22;1838;50.742;7.158;2023-04-03T06:17:14;2.90;99.90
3644;DHT22;1838;50.742;7.158;2023-04-03T06:19:39;3.00;99.90
3644;DHT22;1838;50.742;7.158;2023-04-03T06:22:06;3.10;99.90
3644;DHT22;1838;50.742;7.158;2023-04-03T06:24:32;3.20;99.90
3644;DHT22;1838;50.742;7.158;2023-04-03T06:26:58;3.30;99.90
3644;DHT22;1838;50.742;7.158;2023-04-03T06:29:25;3.30;99.90
3644;DHT22;1838;50.742;7.158;2023-04-03T06:31:51;3.50;99.90
3644;DHT22;1838;50.742;7.158;2023-04-03T06:34:17;3.50;99.90
3644;DHT22;1838;50.742;7.158;2023-04-03T06:36:43;3.60;99.90
3644;DHT22;1838;50.742;7.158;2023-04-03T06:39:15;3.70;99.90
3644;DHT22;1838;50.742;7.158;2023-04-03T06:41:42;3.70;99.90
3644;DHT22;1838;50.742;7.158;2023-04-03T06:44:08;3.80;99.90
3644;DHT22;1838;50.742;7.158;2023-04-03T06:46:37;3.80;99.90
3644;DHT22;1838;50.742;7.158;2023-04-03T06:49:03;3.90;99.90
3644;DHT22;1838;50.742;7.158;2023-04-03T06:51:30;4.00;99.90
3644;DHT22;1838;50.742;7.158;2023-04-03T06:53:57;4.10;99.90
3644;DHT22;1838;50.742;7.158;2023-04-03T06:56:23;4.30;99.90
3644;DHT22;1838;50.742;7.158;2023-04-03T06:58:49;4.50;99.90
3644;DHT22;1838;50.742;7.158;2023-04-03T07:01:17;4.70;99.90
3644;DHT22;1838;50.742;7.158;2023-04-03T07:03:44;4.80;99.90
3644;DHT22;1838;50.742;7.158;2023-04-03T07:06:13;5.10;99.90
3644;DHT22;1838;50.742;7.158;2023-04-03T07:08:39;5.20;99.90
3644;DHT22;1838;50.742;7.158;2023-04-03T07:11:05;5.30;99.90
3644;DHT22;1838;50.742;7.158;2023-04-03T07:13:31;5.40;99.90
3644;DHT22;1838;50.742;7.158;2023-04-03T07:15:58;5.50;99.90
3644;DHT22;1838;50.742;7.158;2023-04-03T07:18:24;5.50;99.90
3644;DHT22;1838;50.742;7.158;2023-04-03T07:20:49;5.60;99.90
3644;DHT22;1838;50.742;7.158;2023-04-03T07:23:15;5.60;99.90
3644;DHT22;1838;50.742;7.158;2023-04-03T07:25:45;5.60;99.90
3644;DHT22;1838;50.742;7.158;2023-04-03T07:28:11;5.70;99.90
3644;DHT22;1838;50.742;7.158;2023-04-03T07:30:48;5.60;99.90
3644;DHT22;1838;50.742;7.158;2023-04-03T07:33:14;5.70;99.90
3644;DHT22;1838;50.742;7.158;2023-04-03T07:35:41;5.70;99.90
3644;DHT22;1838;50.742;7.158;2023-04-03T07:38:07;5.70;99.90
3644;DHT22;1838;50.742;7.158;2023-04-03T07:40:33;5.90;99.90
3644;DHT22;1838;50.742;7.158;2023-04-03T07:42:59;6.00;99.90
3644;DHT22;1838;50.742;7.158;2023-04-03T07:45:25;6.10;99.90
3644;DHT22;1838;50.742;7.158;2023-04-03T07:47:50;6.10;99.90
3644;DHT22;1838;50.742;7.158;2023-04-03T07:50:17;6.20;99.90
3644;DHT22;1838;50.742;7.158;2023-04-03T07:52:43;6.30;99.90
3644;DHT22;1838;50.742;7.158;2023-04-03T07:55:08;6.40;99.90
3644;DHT22;1838;50.742;7.158;2023-04-03T07:57:34;6.40;99.90
3644;DHT22;1838;50.742;7.158;2023-04-03T08:00:00;6.50;99.90
3644;DHT22;1838;50.742;7.158;2023-04-03T08:02:26;6.40;99.90
3644;DHT22;1838;50.742;7.158;2023-04-03T08:04:52;6.30;99.90
3644;DHT22;1838;50.742;7.158;2023-04-03T08:07:17;6.30;99.90
3644;DHT22;1838;50.742;7.158;2023-04-03T08:09:44;6.30;99.90
3644;DHT22;1838;50.742;7.158;2023-04-03T08:12:10;6.40;99.90
3644;DHT22;1838;50.742;7.158;2023-04-03T08:14:36;6.50;99.90
3644;DHT22;1838;50.742;7.158;2023-04-03T08:17:02;6.50;99.90
3644;DHT22;1838;50.742;7.158;2023-04-03T08:19:30;6.50;99.90
3644;DHT22;1838;50.742;7.158;2023-04-03T08:21:56;6.60;99.90
3644;DHT22;1838;50.742;7.158;2023-04-03T08:24:24;6.70;99.90
3644;DHT22;1838;50.742;7.158;2023-04-03T08:26:50;6.70;99.90
3644;DHT22;1838;50.742;7.158;2023-04-03T08:29:15;6.90;99.90
3644;DHT22;1838;50.742;7.158;2023-04-03T08:31:41;7.00;99.90
3644;DHT22;1838;50.742;7.158;2023-04-03T08:34:06;7.10;99.90
3644;DHT22;1838;50.742;7.158;2023-04-03T08:36:32;7.10;99.90
3644;DHT22;1838;50.742;7.158;2023-04-03T08:38:57;7.00;99.90
3644;DHT22;1838;50.742;7.158;2023-04-03T08:41:35;7.00;99.90
3644;DHT22;1838;50.742;7.158;2023-04-03T08:44:03;7.10;99.90
3644;DHT22;1838;50.742;7.158;2023-04-03T08:49:39;7.30;99.90
3644;DHT22;1838;50.742;7.158;2023-04-03T08:52:22;7.30;99.90
3644;DHT22;1838;50.742;7.158;2023-04-03T08:54:55;7.20;99.90
3644;DHT22;1838;50.742;7.158;2023-04-03T08:57:29;7.30;99.90
3644;DHT22;1838;50.742;7.158;2023-04-03T08:59:58;7.40;99.90
3644;DHT22;1838;50.742;7.158;2023-04-03T09:04:54;7.30;99.90
3644;DHT22;1838;50.742;7.158;2023-04-03T09:07:30;7.30;99.90
3644;DHT22;1838;50.742;7.158;2023-04-03T09:09:59;7.40;99.90
3644;DHT22;1838;50.742;7.158;2023-04-03T09:12:40;7.70;99.90
3644;DHT22;1838;50.742;7.158;2023-04-03T09:15:21;7.90;99.90
3644;DHT22;1838;50.742;7.158;2023-04-03T09:18:17;7.80;99.90
3644;DHT22;1838;50.742;7.158;2023-04-03T09:23:46;7.50;99.90
3644;DHT22;1838;50.742;7.158;2023-04-03T09:26:36;7.50;99.90
3644;DHT22;1838;50.742;7.158;2023-04-03T09:29:06;7.60;99.90
3644;DHT22;1838;50.742;7.158;2023-04-03T09:31:38;7.70;99.90
3644;DHT22;1838;50.742;7.158;2023-04-03T09:34:25;7.80;99.90
3644;DHT22;1838;50.742;7.158;2023-04-03T09:36:57;7.90;99.90
3644;DHT22;1838;50.742;7.158;2023-04-03T09:39:25;7.80;99.90
3644;DHT22;1838;50.742;7.158;2023-04-03T09:42:04;7.70;99.90
3644;DHT22;1838;50.742;7.158;2023-04-03T09:44:36;7.60;99.90
3644;DHT22;1838;50.742;7.158;2023-04-03T09:47:37;7.60;99.90
3644;DHT22;1838;50.742;7.158;2023-04-03T09:52:40;7.60;97.90
3644;DHT22;1838;50.742;7.158;2023-04-03T09:55:26;7.50;99.90
3644;DHT22;1838;50.742;7.158;2023-04-03T09:57:59;7.80;99.90
3644;DHT22;1838;50.742;7.158;2023-04-03T10:00:28;7.90;99.70
3644;DHT22;1838;50.742;7.158;2023-04-03T10:02:56;8.20;99.90
3644;DHT22;1838;50.742;7.158;2023-04-03T10:05:38;8.30;99.10
3644;DHT22;1838;50.742;7.158;2023-04-03T10:10:46;8.40;95.60
3644;DHT22;1838;50.742;7.158;2023-04-03T10:13:14;8.40;92.70
3644;DHT22;1838;50.742;7.158;2023-04-03T10:15:45;8.20;91.30
3644;DHT22;1838;50.742;7.158;2023-04-03T10:21:08;8.10;93.30
3644;DHT22;1838;50.742;7.158;2023-04-03T10:23:53;8.10;89.90
3644;DHT22;1838;50.742;7.158;2023-04-03T10:26:49;8.10;90.20
3644;DHT22;1838;50.742;7.158;2023-04-03T10:29:38;8.10;86.90
3644;DHT22;1838;50.742;7.158;2023-04-03T10:32:38;8.20;92.70
3644;DHT22;1838;50.742;7.158;2023-04-03T10:35:20;8.50;92.20
3644;DHT22;1838;50.742;7.158;2023-04-03T10:43:21;9.00;84.20
3644;DHT22;1838;50.742;7.158;2023-04-03T10:46:04;9.00;81.50
3644;DHT22;1838;50.742;7.158;2023-04-03T10:56:52;9.00;75.60
3644;DHT22;1838;50.742;7.158;2023-04-03T10:59:31;9.00;76.40
3644;DHT22;1838;50.742;7.158;2023-04-03T11:02:01;8.90;72.70
3644;DHT22;1838;50.742;7.158;2023-04-03T11:04:33;8.90;78.50
3644;DHT22;1838;50.742;7.158;2023-04-03T11:07:10;9.00;76.40
3644;DHT22;1838;50.742;7.158;2023-04-03T11:09:41;9.10;79.60
3644;DHT22;1838;50.742;7.158;2023-04-03T11:14:55;9.10;71.00
3644;DHT22;1838;50.742;7.158;2023-04-03T11:17:33;9.10;74.80
3644;DHT22;1838;50.742;7.158;2023-04-03T11:20:17;9.30;72.40
3644;DHT22;1838;50.742;7.158;2023-04-03T11:22:48;9.30;68.90
3644;DHT22;1838;50.742;7.158;2023-04-03T11:25:24;9.30;68.90
3644;DHT22;1838;50.742;7.158;2023-04-03T11:30:32;9.10;70.30
3644;DHT22;1838;50.742;7.158;2023-04-03T11:33:08;9.00;68.50
3644;DHT22;1838;50.742;7.158;2023-04-03T11:35:43;9.00;67.10
3644;DHT22;1838;50.742;7.158;2023-04-03T11:38:17;9.20;68.80
3644;DHT22;1838;50.742;7.158;2023-04-03T11:40:45;9.30;64.30
3644;DHT22;1838;50.742;7.158;2023-04-03T11:43:31;9.20;60.20
3644;DHT22;1838;50.742;7.158;2023-04-03T11:46:03;9.10;60.00
3644;DHT22;1838;50.742;7.158;2023-04-03T11:53:42;9.20;61.80
3644;DHT22;1838;50.742;7.158;2023-04-03T12:04:11;9.40;60.10
3644;DHT22;1838;50.742;7.158;2023-04-03T12:09:23;9.40;58.10
3644;DHT22;1838;50.742;7.158;2023-04-03T12:11:49;9.50;59.70
3644;DHT22;1838;50.742;7.158;2023-04-03T12:14:15;9.60;61.20
3644;DHT22;1838;50.742;7.158;2023-04-03T12:16:45;9.70;59.00
3644;DHT22;1838;50.742;7.158;2023-04-03T12:41:11;10.20;57.20
3644;DHT22;1838;50.742;7.158;2023-04-03T12:46:42;10.20;56.60
3644;DHT22;1838;50.742;7.158;2023-04-03T12:51:55;10.30;58.00
3644;DHT22;1838;50.742;7.158;2023-04-03T12:54:30;10.30;54.00
3644;DHT22;1838;50.742;7.158;2023-04-03T12:57:20;10.30;53.40
3644;DHT22;1838;50.742;7.158;2023-04-03T12:59:47;10.40;56.50
3644;DHT22;1838;50.742;7.158;2023-04-03T13:02:30;10.50;56.50
3644;DHT22;1838;50.742;7.158;2023-04-03T13:05:08;10.60;54.60
3644;DHT22;1838;50.742;7.158;2023-04-03T13:07:37;10.60;54.70
3644;DHT22;1838;50.742;7.158;2023-04-03T13:12:57;10.80;56.40
3644;DHT22;1838;50.742;7.158;2023-04-03T13:15:29;10.80;54.90
3644;DHT22;1838;50.742;7.158;2023-04-03T13:17:56;10.80;54.80
3644;DHT22;1838;50.742;7.158;2023-04-03T13:20:28;10.80;55.70
3644;DHT22;1838;50.742;7.158;2023-04-03T13:23:01;10.80;54.40
3644;DHT22;1838;50.742;7.158;2023-04-03T13:25:31;10.90;54.60
3644;DHT22;1838;50.742;7.158;2023-04-03T13:27:59;11.10;55.40
3644;DHT22;1838;50.742;7.158;2023-04-03T13:30:35;11.20;55.70
3644;DHT22;1838;50.742;7.158;2023-04-03T13:33:04;11.30;55.70
3644;DHT22;1838;50.742;7.158;2023-04-03T13:35:40;11.40;57.40
3644;DHT22;1838;50.742;7.158;2023-04-03T13:38:23;11.30;54.90
3644;DHT22;1838;50.742;7.158;2023-04-03T13:40:57;11.40;58.50
3644;DHT22;1838;50.742;7.158;2023-04-03T13:43:27;11.30;55.50
3644;DHT22;1838;50.742;7.158;2023-04-03T13:48:43;11.20;56.90
3644;DHT22;1838;50.742;7.158;2023-04-03T13:54:15;11.20;56.10
3644;DHT22;1838;50.742;7.158;2023-04-03T13:56:38;11.30;56.10
3644;DHT22;1838;50.742;7.158;2023-04-03T14:04:30;10.90;56.90
3644;DHT22;1838;50.742;7.158;2023-04-03T14:06:56;10.90;55.70
3644;DHT22;1838;50.742;7.158;2023-04-03T14:09:23;10.90;56.20
3644;DHT22;1838;50.742;7.158;2023-04-03T14:11:51;11.00;57.90
3644;DHT22;1838;50.742;7.158;2023-04-03T14:14:21;11.20;58.70
3644;DHT22;1838;50.742;7.158;2023-04-03T14:16:52;11.40;57.20
3644;DHT22;1838;50.742;7.158;2023-04-03T14:19:28;11.30;54.90
3644;DHT22;1838;50.742;7.158;2023-04-03T14:21:56;11.10;54.70
3644;DHT22;1838;50.742;7.158;2023-04-03T14:24:22;11.00;54.60
3644;DHT22;1838;50.742;7.158;2023-04-03T14:26:53;11.00;54.50
3644;DHT22;1838;50.742;7.158;2023-04-03T14:29:22;11.00;55.10
3644;DHT22;1838;50.742;7.158;2023-04-03T14:31:49;10.90;53.70
3644;DHT22;1838;50.742;7.158;2023-04-03T14:34:16;10.90;55.10
3644;DHT22;1838;50.742;7.158;2023-04-03T14:36:43;10.80;54.30
3644;DHT22;1838;50.742;7.158;2023-04-03T14:39:16;11.00;55.80
3644;DHT22;1838;50.742;7.158;2023-04-03T14:41:43;11.10;54.80
3644;DHT22;1838;50.742;7.158;2023-04-03T14:44:09;11.30;54.90
3644;DHT22;1838;50.742;7.158;2023-04-03T14:46:38;11.30;54.90
3644;DHT22;1838;50.742;7.158;2023-04-03T14:49:18;11.30;54.70
3644;DHT22;1838;50.742;7.158;2023-04-03T14:51:44;11.30;53.20
3644;DHT22;1838;50.742;7.158;2023-04-03T14:54:15;11.20;54.00
3644;DHT22;1838;50.742;7.158;2023-04-03T14:56:41;11.00;54.30
3644;DHT22;1838;50.742;7.158;2023-04-03T14:59:12;10.90;54.30
3644;DHT22;1838;50.742;7.158;2023-04-03T15:01:39;10.90;54.00
3644;DHT22;1838;50.742;7.158;2023-04-03T15:04:10;10.90;54.80
3644;DHT22;1838;50.742;7.158;2023-04-03T15:06:37;11.00;53.90
3644;DHT22;1838;50.742;7.158;2023-04-03T15:09:02;11.00;56.50
3644;DHT22;1838;50.742;7.158;2023-04-03T15:11:28;11.10;57.60
3644;DHT22;1838;50.742;7.158;2023-04-03T15:13:54;11.20;57.00
3644;DHT22;1838;50.742;7.158;2023-04-03T15:16:19;11.20;57.10
3644;DHT22;1838;50.742;7.158;2023-04-03T15:18:46;11.30;56.30
3644;DHT22;1838;50.742;7.158;2023-04-03T15:21:13;11.30;55.80
3644;DHT22;1838;50.742;7.158;2023-04-03T15:23:38;11.30;54.50
3644;DHT22;1838;50.742;7.158;2023-04-03T15:26:04;11.10;55.40
3644;DHT22;1838;50.742;7.158;2023-04-03T15:28:34;11.00;55.30
3644;DHT22;1838;50.742;7.158;2023-04-03T15:31:00;11.00;56.30
3644;DHT22;1838;50.742;7.158;2023-04-03T15:33:26;11.00;54.50
3644;DHT22;1838;50.742;7.158;2023-04-03T15:35:52;11.00;55.10
3644;DHT22;1838;50.742;7.158;2023-04-03T15:38:18;11.00;54.50
3644;DHT22;1838;50.742;7.158;2023-04-03T15:40:43;11.00;54.50
3644;DHT22;1838;50.742;7.158;2023-04-03T15:43:09;10.90;53.70
3644;DHT22;1838;50.742;7.158;2023-04-03T15:45:36;10.90;54.70
3644;DHT22;1838;50.742;7.158;2023-04-03T15:48:03;11.00;54.40
3644;DHT22;1838;50.742;7.158;2023-04-03T15:50:29;11.00;52.70
3644;DHT22;1838;50.742;7.158;2023-04-03T15:52:55;10.90;52.40
3644;DHT22;1838;50.742;7.158;2023-04-03T15:55:25;11.00;52.70
3644;DHT22;1838;50.742;7.158;2023-04-03T15:57:54;10.90;53.20
3644;DHT22;1838;50.742;7.158;2023-04-03T16:00:21;10.90;56.00
3644;DHT22;1838;50.742;7.158;2023-04-03T16:02:48;11.00;56.00
3644;DHT22;1838;50.742;7.158;2023-04-03T16:05:17;11.10;54.40
3644;DHT22;1838;50.742;7.158;2023-04-03T16:07:43;11.10;54.00
3644;DHT22;1838;50.742;7.158;2023-04-03T16:10:11;11.00;53.80
3644;DHT22;1838;50.742;7.158;2023-04-03T16:12:37;10.90;54.30
3644;DHT22;1838;50.742;7.158;2023-04-03T16:15:04;10.90;54.70
3644;DHT22;1838;50.742;7.158;2023-04-03T16:17:31;10.80;54.10
3644;DHT22;1838;50.742;7.158;2023-04-03T16:19:57;10.80;54.70
3644;DHT22;1838;50.742;7.158;2023-04-03T16:22:25;10.80;55.10
3644;DHT22;1838;50.742;7.158;2023-04-03T16:24:51;10.60;54.10
3644;DHT22;1838;50.742;7.158;2023-04-03T16:27:17;10.60;55.20
3644;DHT22;1838;50.742;7.158;2023-04-03T16:29:43;10.60;53.90
3644;DHT22;1838;50.742;7.158;2023-04-03T16:32:08;10.50;54.40
3644;DHT22;1838;50.742;7.158;2023-04-03T16:34:34;10.50;54.40
3644;DHT22;1838;50.742;7.158;2023-04-03T16:36:59;10.40;54.00
3644;DHT22;1838;50.742;7.158;2023-04-03T16:39:25;10.50;54.30
3644;DHT22;1838;50.742;7.158;2023-04-03T16:41:51;10.40;54.50
3644;DHT22;1838;50.742;7.158;2023-04-03T16:44:16;10.30;54.10
3644;DHT22;1838;50.742;7.158;2023-04-03T16:46:42;10.20;53.60
3644;DHT22;1838;50.742;7.158;2023-04-03T16:49:07;10.20;54.70
3644;DHT22;1838;50.742;7.158;2023-04-03T16:51:33;10.10;54.50
3644;DHT22;1838;50.742;7.158;2023-04-03T16:53:58;10.10;55.10
3644;DHT22;1838;50.742;7.158;2023-04-03T16:56:24;10.20;55.10
3644;DHT22;1838;50.742;7.158;2023-04-03T16:58:52;10.20;55.30
3644;DHT22;1838;50.742;7.158;2023-04-03T17:01:19;10.20;56.00
3644;DHT22;1838;50.742;7.158;2023-04-03T17:03:45;10.10;55.90
3644;DHT22;1838;50.742;7.158;2023-04-03T17:06:13;10.00;55.90
3644;DHT22;1838;50.742;7.158;2023-04-03T17:08:42;9.90;57.20
3644;DHT22;1838;50.742;7.158;2023-04-03T17:11:08;9.90;56.60
3644;DHT22;1838;50.742;7.158;2023-04-03T17:13:33;9.90;58.40
3644;DHT22;1838;50.742;7.158;2023-04-03T17:16:00;9.80;57.40
3644;DHT22;1838;50.742;7.158;2023-04-03T17:18:28;9.70;57.80
3644;DHT22;1838;50.742;7.158;2023-04-03T17:20:54;9.70;56.40
3644;DHT22;1838;50.742;7.158;2023-04-03T17:23:20;9.60;55.70
3644;DHT22;1838;50.742;7.158;2023-04-03T17:25:46;9.60;57.20
3644;DHT22;1838;50.742;7.158;2023-04-03T17:28:11;9.60;56.70
3644;DHT22;1838;50.742;7.158;2023-04-03T17:30:37;9.50;56.60
3644;DHT22;1838;50.742;7.158;2023-04-03T17:33:03;9.40;57.40
3644;DHT22;1838;50.742;7.158;2023-04-03T17:35:29;9.40;57.90
3644;DHT22;1838;50.742;7.158;2023-04-03T17:37:55;9.30;57.80
3644;DHT22;1838;50.742;7.158;2023-04-03T17:40:21;9.20;57.70
3644;DHT22;1838;50.742;7.158;2023-04-03T17:42:46;9.20;58.00
3644;DHT22;1838;50.742;7.158;2023-04-03T17:45:12;9.10;58.10
3644;DHT22;1838;50.742;7.158;2023-04-03T17:47:37;9.10;58.60
3644;DHT22;1838;50.742;7.158;2023-04-03T17:50:03;9.10;59.10
3644;DHT22;1838;50.742;7.158;2023-04-03T17:52:29;9.10;58.60
3644;DHT22;1838;50.742;7.158;2023-04-03T17:54:56;9.00;57.80
3644;DHT22;1838;50.742;7.158;2023-04-03T17:57:21;8.90;58.30